Airfield :
LOGIN :

Register | Disclaimer

   EN    FR    IT 

 










Legend :    VFR   Marginal VFR   IFR   Intensive IFR   Very Intensive IFR
Visi :
Ceiling :
>= 8 km
>= 3000ft
5 to 8 km
1000 to 3000 ft
1500m to 5 km
500 to 1000 ft
800 to 1500m
200 to 500 ft
< 800m
< 200 ft
Symbols :   Thunderstorms  Fog  Heavy snow  Heavy precipitations  Wind > 20 kt
SIGMETs :     Misc.  Thunderstorms  Icing  Turbulence  Mountain Waves  Volcanic Ashes







- Airport Elevation : 3360 ft
- IATA code : QSF


DAAS - 8 Mai 45

CURRENT METAR :
  • 252100Z 02004KT CAVOK 09/01 Q1021

EXPIRED METARs :
  • 252000Z 02005KT 9999 FEW030 SCT233 10/00 Q1021
  • 251900Z 02010KT 9999 FEW030 SCT233 11/M00 Q1020

TAF TAF DAAS
Valid from the 25 at 18:00 until the 26 at 18:00 UTC


251700Z 2518/2618 30010KT CAVOK
BECMG 2521/2524 VRB02KT
TEMPO 2600/2607 2000 BR SCT006 SCT010
No reported NOTAMs for that airfield.



MET'MAP, your aeronautical weather chart ! - Copyright ORBIFLY December 2007 - Disclaimer

ORBIFLY MET'MAP TEAM :

Programming & Development : Alexandra Zaïnal
Concept & Development : Baudouin d'Aumeries
Co-Development & Prog : Marc-Olivier Méhu
Technical & hardware support : Manuel Goepfert

Contact : metmap@orbifly.com




SOURCES & CREDITS :

   NOAA